Time;durP1;ratioP1;P1;durP2;ratioP2;P2;SDS_P1;SDS_P2;PMS_P1;PMS_P2;Temp;Humidity;BMP_temperature;BMP_pressure;BME280_temperature;BME280_humidity;BME280_pressure;Samples;Min_cycle;Max_cycle;Signal;HPM_P1;HPM_P2
2021/12/21 00:00:13;;;;;;;16.23;6.75;;;;;;;;;;5022043;28;20034;-66
2021/12/21 00:02:44;;;;;;;16.02;6.75;;;;;;;;;;5014645;28;20026;-66
2021/12/21 00:05:16;;;;;;;17.15;6.93;;;;;;;;;;5032415;28;20110;-63
2021/12/21 00:07:42;;;;;;;16.92;7.85;;;;;;;;;;5032416;28;20029;-66
2021/12/21 00:10:08;;;;;;;17.67;9.00;;;;;;;;;;5032223;28;20029;-65
2021/12/21 00:12:36;;;;;;;20.08;9.05;;;;;;;;;;5031722;28;20126;-65
2021/12/21 00:15:05;;;;;;;21.70;8.77;;;;;;;;;;5032181;28;20022;-66
2021/12/21 00:20:22;;;;;;;14.45;7.57;;;;;;;;;;5032256;28;20037;-65
2021/12/21 00:25:20;;;;;;;18.50;7.75;;;;;;;;;;5032141;28;20026;-65
2021/12/21 00:27:48;;;;;;;18.70;7.80;;;;;;;;;;5031738;28;20021;-65
2021/12/21 00:30:14;;;;;;;18.63;9.30;;;;;;;;;;5031927;28;20040;-63
2021/12/21 00:32:41;;;;;;;11.43;6.00;;;;;;;;;;5033800;28;20443;-65
2021/12/21 00:35:06;;;;;;;11.55;6.30;;;;;;;;;;5035799;28;20025;-64
2021/12/21 00:37:32;;;;;;;14.10;6.10;;;;;;;;;;5035673;28;20092;-65
2021/12/21 00:39:58;;;;;;;10.30;6.53;;;;;;;;;;5035485;28;20041;-65
2021/12/21 00:42:23;;;;;;;16.90;7.07;;;;;;;;;;5035691;28;20103;-65
2021/12/21 00:44:49;;;;;;;13.95;5.63;;;;;;;;;;5043615;28;20036;-65
2021/12/21 00:47:16;;;;;;;14.95;6.13;;;;;;;;;;5035618;28;20067;-66
2021/12/21 00:49:47;;;;;;;12.88;5.68;;;;;;;;;;5035253;28;20025;-66
2021/12/21 00:52:13;;;;;;;11.43;5.32;;;;;;;;;;5035572;28;20029;-67
2021/12/21 00:54:39;;;;;;;13.48;6.05;;;;;;;;;;5035202;28;20017;-65
2021/12/21 00:57:05;;;;;;;11.50;5.50;;;;;;;;;;5035493;28;20025;-65
2021/12/21 00:59:32;;;;;;;14.38;6.88;;;;;;;;;;5035513;28;20025;-66
2021/12/21 01:01:57;;;;;;;15.35;6.78;;;;;;;;;;5035471;28;20022;-61
2021/12/21 01:04:30;;;;;;;13.27;6.63;;;;;;;;;;5035332;28;20373;-65
2021/12/21 01:07:08;;;;;;;11.00;5.65;;;;;;;;;;5026174;28;20025;-64
2021/12/21 01:20:27;;;;;;;37.42;10.80;;;;;;;;;;4974093;28;20039;-64
2021/12/21 01:25:38;;;;;;;27.52;9.27;;;;;;;;;;4973997;28;20442;-63
2021/12/21 01:30:52;;;;;;;24.42;7.97;;;;;;;;;;4979368;28;20035;-65
2021/12/21 01:35:47;;;;;;;19.80;6.68;;;;;;;;;;4973847;28;20023;-63
2021/12/21 01:40:56;;;;;;;13.40;5.35;;;;;;;;;;4973506;28;20047;-65
2021/12/21 01:43:36;;;;;;;14.32;4.93;;;;;;;;;;4973353;28;20471;-65
2021/12/21 01:51:29;;;;;;;8.77;3.40;;;;;;;;;;5034638;28;20396;-68
2021/12/21 01:53:55;;;;;;;8.60;3.38;;;;;;;;;;5034075;28;20030;-65
2021/12/21 01:56:21;;;;;;;8.65;3.47;;;;;;;;;;5034270;28;20037;-65
2021/12/21 01:58:47;;;;;;;8.80;4.20;;;;;;;;;;5034104;28;20014;-66
2021/12/21 02:01:16;;;;;;;8.70;3.20;;;;;;;;;;5034175;28;20088;-64
2021/12/21 02:03:47;;;;;;;9.48;3.40;;;;;;;;;;5034027;28;20021;-63
2021/12/21 02:06:18;;;;;;;9.50;4.40;;;;;;;;;;5033897;28;20034;-65
2021/12/21 02:08:44;;;;;;;9.60;3.95;;;;;;;;;;5033760;28;20021;-65
2021/12/21 02:11:10;;;;;;;11.15;4.43;;;;;;;;;;5015964;28;20384;-59
2021/12/21 02:13:38;;;;;;;13.05;6.38;;;;;;;;;;5033881;28;20017;-59
2021/12/21 02:16:05;;;;;;;12.30;6.40;;;;;;;;;;5033738;28;20029;-64
2021/12/21 02:18:48;;;;;;;13.15;6.55;;;;;;;;;;5033959;28;20063;-64
2021/12/21 02:21:27;;;;;;;12.68;6.82;;;;;;;;;;5033608;28;20028;-64
2021/12/21 02:23:59;;;;;;;12.85;6.97;;;;;;;;;;5033867;28;20480;-66
2021/12/21 02:31:36;;;;;;;10.35;3.42;;;;;;;;;;5021424;28;20026;-66
2021/12/21 02:34:02;;;;;;;6.65;3.10;;;;;;;;;;5019108;28;20397;-65
2021/12/21 02:36:29;;;;;;;7.57;2.90;;;;;;;;;;5013323;28;20037;-64
2021/12/21 02:38:55;;;;;;;5.00;2.60;;;;;;;;;;5027597;28;20045;-65
2021/12/21 02:41:20;;;;;;;8.13;2.78;;;;;;;;;;5033294;28;20041;-64
2021/12/21 02:43:46;;;;;;;7.15;3.17;;;;;;;;;;5034150;28;20134;-64
2021/12/21 02:46:11;;;;;;;12.15;3.10;;;;;;;;;;5019609;28;20044;-65
2021/12/21 02:48:37;;;;;;;14.18;3.35;;;;;;;;;;5033122;28;20114;-64
2021/12/21 02:51:02;;;;;;;8.73;4.43;;;;;;;;;;5032900;28;20104;-65
2021/12/21 02:53:28;;;;;;;33.28;9.57;;;;;;;;;;5032984;28;20022;-66
2021/12/21 02:55:54;;;;;;;11.30;4.80;;;;;;;;;;5032426;28;20068;-65
2021/12/21 02:58:19;;;;;;;11.20;4.53;;;;;;;;;;5033163;28;20087;-64
2021/12/21 03:00:47;;;;;;;9.50;4.30;;;;;;;;;;5032867;28;20075;-58
2021/12/21 03:03:14;;;;;;;6.90;4.05;;;;;;;;;;5032938;28;20083;-65
2021/12/21 03:05:50;;;;;;;12.93;5.97;;;;;;;;;;5032789;28;20400;-66
2021/12/21 03:08:36;;;;;;;13.48;6.38;;;;;;;;;;5033050;28;20079;-66
2021/12/21 03:11:21;;;;;;;15.20;6.93;;;;;;;;;;5032734;28;20052;-66
2021/12/21 03:16:18;;;;;;;14.90;7.47;;;;;;;;;;5020331;28;20104;-67
2021/12/21 03:18:44;;;;;;;16.90;8.35;;;;;;;;;;5032821;28;20079;-65
2021/12/21 03:21:10;;;;;;;20.42;9.73;;;;;;;;;;5032782;28;20040;-64
2021/12/21 03:23:36;;;;;;;19.10;9.23;;;;;;;;;;5032709;28;20022;-66
2021/12/21 03:26:02;;;;;;;17.05;8.48;;;;;;;;;;5032813;28;20029;-63
2021/12/21 03:28:27;;;;;;;20.25;8.98;;;;;;;;;;5032512;28;20026;-60
2021/12/21 03:30:53;;;;;;;21.90;10.07;;;;;;;;;;5032532;28;20079;-62
2021/12/21 03:33:18;;;;;;;25.98;10.40;;;;;;;;;;5032567;28;20028;-62
2021/12/21 03:35:44;;;;;;;22.52;9.55;;;;;;;;;;5032475;28;20070;-60
2021/12/21 03:38:09;;;;;;;19.83;9.50;;;;;;;;;;5032457;28;20052;-62
2021/12/21 03:40:36;;;;;;;22.77;9.65;;;;;;;;;;5032770;28;20486;-62
2021/12/21 03:43:01;;;;;;;47.78;14.48;;;;;;;;;;5032558;28;20029;-60
2021/12/21 03:45:31;;;;;;;39.78;12.75;;;;;;;;;;5041455;28;20025;-60
2021/12/21 03:47:57;;;;;;;32.47;11.77;;;;;;;;;;5032531;28;20029;-62
2021/12/21 03:50:22;;;;;;;28.40;11.77;;;;;;;;;;5032151;28;20125;-63
2021/12/21 03:52:48;;;;;;;28.88;12.27;;;;;;;;;;5032300;28;20037;-61
2021/12/21 03:55:13;;;;;;;33.28;14.00;;;;;;;;;;5032446;28;20112;-64
2021/12/21 03:57:39;;;;;;;32.75;13.75;;;;;;;;;;5032466;28;20083;-60
2021/12/21 04:00:08;;;;;;;33.72;13.13;;;;;;;;;;5032195;28;20026;-60
2021/12/21 04:02:34;;;;;;;36.75;11.30;;;;;;;;;;5032383;28;20049;-60
2021/12/21 04:04:59;;;;;;;38.42;12.45;;;;;;;;;;5031707;28;20022;-60
2021/12/21 04:07:26;;;;;;;42.75;12.80;;;;;;;;;;5035546;28;20060;-60
2021/12/21 04:09:52;;;;;;;43.08;13.32;;;;;;;;;;5036088;28;20025;-65
2021/12/21 04:12:18;;;;;;;45.95;13.15;;;;;;;;;;5036423;28;20051;-60
2021/12/21 04:14:44;;;;;;;68.97;16.65;;;;;;;;;;5036270;28;20123;-59
2021/12/21 04:17:18;;;;;;;63.28;12.52;;;;;;;;;;5036275;28;20038;-61
2021/12/21 04:19:44;;;;;;;35.65;11.23;;;;;;;;;;5035812;28;20104;-61
2021/12/21 04:22:10;;;;;;;50.33;11.23;;;;;;;;;;5035998;28;20060;-61
2021/12/21 04:24:35;;;;;;;47.60;11.73;;;;;;;;;;5035809;28;20072;-62
2021/12/21 04:27:01;;;;;;;60.13;11.45;;;;;;;;;;5036127;28;20017;-61
2021/12/21 04:29:27;;;;;;;59.10;11.80;;;;;;;;;;5035660;28;20053;-59
2021/12/21 04:31:52;;;;;;;50.45;12.38;;;;;;;;;;5035683;28;20435;-60
2021/12/21 04:34:18;;;;;;;56.42;10.95;;;;;;;;;;5035652;28;20021;-59
2021/12/21 04:36:45;;;;;;;63.63;11.82;;;;;;;;;;5035790;28;20460;-60
2021/12/21 04:39:21;;;;;;;50.55;11.70;;;;;;;;;;5035657;28;20453;-60
2021/12/21 04:41:47;;;;;;;67.53;10.10;;;;;;;;;;5018032;28;20059;-60
2021/12/21 04:44:12;;;;;;;57.97;21.13;;;;;;;;;;5040946;28;20056;-63
2021/12/21 04:46:38;;;;;;;98.50;26.38;;;;;;;;;;5042682;28;20029;-64
2021/12/21 04:49:03;;;;;;;53.67;13.93;;;;;;;;;;5035268;28;20026;-60
2021/12/21 04:51:28;;;;;;;64.38;12.30;;;;;;;;;;5035606;28;20033;-60
2021/12/21 04:53:54;;;;;;;62.03;11.32;;;;;;;;;;5029628;28;20065;-59
2021/12/21 04:56:19;;;;;;;36.60;10.10;;;;;;;;;;4998036;28;20030;-59
2021/12/21 04:58:45;;;;;;;39.63;9.50;;;;;;;;;;5020142;28;20029;-66
2021/12/21 05:01:10;;;;;;;53.28;8.85;;;;;;;;;;5035253;28;20037;-60
2021/12/21 05:03:36;;;;;;;34.92;10.63;;;;;;;;;;5035318;28;20025;-66
2021/12/21 05:06:02;;;;;;;44.88;8.27;;;;;;;;;;5035432;28;20030;-63
2021/12/21 05:08:33;;;;;;;46.08;12.90;;;;;;;;;;5035123;28;20033;-66
2021/12/21 05:11:03;;;;;;;51.75;11.45;;;;;;;;;;5035143;28;20025;-60
2021/12/21 05:13:30;;;;;;;71.73;14.17;;;;;;;;;;5035064;28;20022;-62
2021/12/21 05:15:56;;;;;;;28.30;9.13;;;;;;;;;;5034913;28;20384;-59
2021/12/21 05:18:23;;;;;;;23.20;8.88;;;;;;;;;;5033971;28;20025;-59
2021/12/21 05:20:48;;;;;;;28.83;10.02;;;;;;;;;;5034964;28;20048;-60
2021/12/21 05:23:14;;;;;;;36.42;8.48;;;;;;;;;;5034953;28;20468;-59
2021/12/21 05:25:40;;;;;;;30.92;8.45;;;;;;;;;;5034857;28;20547;-60
2021/12/21 05:28:08;;;;;;;37.75;9.00;;;;;;;;;;5034508;28;20041;-60
2021/12/21 05:30:35;;;;;;;34.00;10.73;;;;;;;;;;5034571;28;20117;-65
2021/12/21 05:33:01;;;;;;;33.90;10.45;;;;;;;;;;5034680;28;20029;-66
2021/12/21 05:35:27;;;;;;;35.20;10.88;;;;;;;;;;5034772;28;20021;-65
2021/12/21 05:37:58;;;;;;;25.75;8.95;;;;;;;;;;5034399;28;20037;-67
2021/12/21 05:40:31;;;;;;;28.00;7.85;;;;;;;;;;5034680;28;20025;-63
2021/12/21 05:42:57;;;;;;;17.50;7.70;;;;;;;;;;5034488;28;20025;-66
2021/12/21 05:45:22;;;;;;;21.52;7.70;;;;;;;;;;5036824;28;20029;-64
2021/12/21 05:47:48;;;;;;;18.85;7.32;;;;;;;;;;5034426;28;20017;-65
2021/12/21 05:50:16;;;;;;;18.45;9.02;;;;;;;;;;5034579;28;20030;-63
2021/12/21 05:52:43;;;;;;;26.90;9.10;;;;;;;;;;5034016;28;20148;-66
2021/12/21 05:55:09;;;;;;;17.38;6.85;;;;;;;;;;5034437;28;20032;-66
2021/12/21 05:57:35;;;;;;;33.53;8.98;;;;;;;;;;5034456;28;20089;-65
2021/12/21 06:00:01;;;;;;;29.73;8.73;;;;;;;;;;5033882;28;20473;-62
2021/12/21 06:02:26;;;;;;;32.90;9.02;;;;;;;;;;5034147;28;20540;-65
2021/12/21 06:04:52;;;;;;;41.28;11.23;;;;;;;;;;5034206;28;20116;-65
2021/12/21 06:07:17;;;;;;;42.67;8.35;;;;;;;;;;5034123;28;20108;-64
2021/12/21 06:09:46;;;;;;;19.55;8.60;;;;;;;;;;5034180;28;20152;-66
2021/12/21 06:12:20;;;;;;;22.30;7.93;;;;;;;;;;5034056;28;20091;-66
2021/12/21 06:15:07;;;;;;;29.00;8.00;;;;;;;;;;5033818;28;20053;-65
2021/12/21 06:25:41;;;;;;;29.40;8.85;;;;;;;;;;5019888;28;20481;-65
2021/12/21 06:28:11;;;;;;;22.23;7.93;;;;;;;;;;5033314;28;20065;-66
2021/12/21 06:30:39;;;;;;;27.75;10.32;;;;;;;;;;5015776;28;20028;-65
2021/12/21 06:33:06;;;;;;;24.25;8.50;;;;;;;;;;5033455;28;20033;-59
2021/12/21 06:35:32;;;;;;;31.33;8.27;;;;;;;;;;5033581;28;20028;-59
2021/12/21 06:37:58;;;;;;;23.48;8.95;;;;;;;;;;5033278;28;20045;-59
2021/12/21 06:40:25;;;;;;;32.28;8.65;;;;;;;;;;5033611;28;20029;-59
2021/12/21 06:42:51;;;;;;;25.77;7.95;;;;;;;;;;5015162;28;20386;-59
2021/12/21 06:53:32;;;;;;;29.13;5.68;;;;;;;;;;4934044;29;20040;-59
2021/12/21 06:55:58;;;;;;;32.47;6.60;;;;;;;;;;4933794;29;20486;-59
2021/12/21 06:58:23;;;;;;;18.27;5.68;;;;;;;;;;4933572;29;20048;-60
2021/12/21 07:00:50;;;;;;;31.20;5.28;;;;;;;;;;4936017;29;20043;-60
2021/12/21 07:03:15;;;;;;;31.25;5.15;;;;;;;;;;4943893;29;20035;-61
2021/12/21 07:05:41;;;;;;;31.52;5.03;;;;;;;;;;4946323;29;20093;-59
2021/12/21 07:08:12;;;;;;;35.08;4.78;;;;;;;;;;4933755;29;20036;-60
2021/12/21 07:10:39;;;;;;;33.97;5.32;;;;;;;;;;4933587;29;20438;-61
2021/12/21 07:18:33;;;;;;;16.88;4.38;;;;;;;;;;4933747;29;20555;-65
2021/12/21 07:21:00;;;;;;;13.77;4.75;;;;;;;;;;4933382;29;20035;-63
2021/12/21 07:23:27;;;;;;;24.63;6.45;;;;;;;;;;4944472;29;20513;-66
2021/12/21 07:25:53;;;;;;;44.88;13.82;;;;;;;;;;5012287;28;20029;-66
2021/12/21 07:28:19;;;;;;;37.85;8.35;;;;;;;;;;5032365;28;20543;-63
2021/12/21 07:30:47;;;;;;;26.30;6.88;;;;;;;;;;5032254;28;20025;-66
2021/12/21 07:33:13;;;;;;;32.55;8.15;;;;;;;;;;5032249;28;20106;-65
2021/12/21 07:35:39;;;;;;;25.25;9.80;;;;;;;;;;5032518;28;20024;-62
2021/12/21 07:38:05;;;;;;;22.10;10.25;;;;;;;;;;5032102;28;20041;-65
2021/12/21 07:40:31;;;;;;;17.85;6.32;;;;;;;;;;5023893;28;20362;-62
2021/12/21 07:42:56;;;;;;;12.32;5.30;;;;;;;;;;5013809;28;20033;-63
2021/12/21 07:45:22;;;;;;;19.13;5.15;;;;;;;;;;5040195;28;20369;-62
2021/12/21 07:47:47;;;;;;;24.95;8.85;;;;;;;;;;5032240;28;20021;-61
2021/12/21 07:50:13;;;;;;;43.92;18.48;;;;;;;;;;5032382;28;20397;-63
2021/12/21 07:52:39;;;;;;;34.13;15.60;;;;;;;;;;5032310;28;20032;-65
2021/12/21 07:55:05;;;;;;;30.70;15.68;;;;;;;;;;5032205;28;20026;-66
2021/12/21 07:57:31;;;;;;;9.93;5.50;;;;;;;;;;5032505;28;20416;-63
2021/12/21 07:59:57;;;;;;;10.88;6.00;;;;;;;;;;5032394;28;20041;-63
2021/12/21 08:02:25;;;;;;;11.77;6.20;;;;;;;;;;5032148;28;20408;-65
2021/12/21 08:04:52;;;;;;;18.48;9.15;;;;;;;;;;5032267;28;20029;-64
2021/12/21 08:07:22;;;;;;;22.23;11.82;;;;;;;;;;5032178;28;20029;-60
2021/12/21 08:09:52;;;;;;;19.13;9.70;;;;;;;;;;5032020;28;20380;-62
2021/12/21 08:12:18;;;;;;;14.77;8.45;;;;;;;;;;5031922;28;20045;-60
2021/12/21 08:14:45;;;;;;;15.55;9.07;;;;;;;;;;5032083;28;20023;-59
2021/12/21 08:17:10;;;;;;;11.95;6.55;;;;;;;;;;5032043;28;20028;-59
2021/12/21 08:19:36;;;;;;;10.23;5.95;;;;;;;;;;5012554;28;20536;-59
2021/12/21 08:22:03;;;;;;;15.23;6.07;;;;;;;;;;5025831;28;20396;-59
2021/12/21 08:24:29;;;;;;;12.57;6.28;;;;;;;;;;5031826;28;20071;-61
2021/12/21 08:26:56;;;;;;;13.43;5.70;;;;;;;;;;5032027;28;20395;-60
2021/12/21 08:29:22;;;;;;;12.23;5.00;;;;;;;;;;5014377;28;20104;-59
2021/12/21 08:31:48;;;;;;;7.53;4.68;;;;;;;;;;5031869;28;20116;-59
2021/12/21 08:34:15;;;;;;;7.68;4.97;;;;;;;;;;5031852;28;20542;-59
2021/12/21 08:36:41;;;;;;;13.80;6.70;;;;;;;;;;5031837;28;20049;-60
2021/12/21 08:39:07;;;;;;;13.07;6.97;;;;;;;;;;5031577;28;20045;-58
2021/12/21 08:41:39;;;;;;;13.48;7.20;;;;;;;;;;5014215;28;20037;-60
2021/12/21 08:44:04;;;;;;;14.00;6.70;;;;;;;;;;5036118;28;20112;-59
2021/12/21 08:46:30;;;;;;;57.17;24.65;;;;;;;;;;5038216;28;20099;-60
2021/12/21 08:48:55;;;;;;;47.08;23.05;;;;;;;;;;5031828;28;20164;-59
2021/12/21 08:51:20;;;;;;;39.58;18.13;;;;;;;;;;5031768;28;20061;-59
2021/12/21 08:53:46;;;;;;;17.40;7.45;;;;;;;;;;5033311;28;20025;-60
2021/12/21 08:56:11;;;;;;;19.17;10.10;;;;;;;;;;5035467;28;20414;-61
2021/12/21 08:58:37;;;;;;;24.58;10.30;;;;;;;;;;5035187;28;20427;-62
2021/12/21 09:01:02;;;;;;;13.40;7.03;;;;;;;;;;5035328;28;20025;-66
2021/12/21 09:03:28;;;;;;;14.43;9.30;;;;;;;;;;5035147;28;20365;-62
2021/12/21 09:05:54;;;;;;;19.73;8.70;;;;;;;;;;5035361;28;20068;-60
2021/12/21 09:08:20;;;;;;;10.80;6.30;;;;;;;;;;5034959;28;20452;-63
2021/12/21 09:10:45;;;;;;;15.60;9.25;;;;;;;;;;5035105;28;20370;-64
2021/12/21 09:13:11;;;;;;;20.98;11.50;;;;;;;;;;5035003;28;20029;-59
2021/12/21 09:15:37;;;;;;;15.05;8.75;;;;;;;;;;5035170;28;20029;-61
2021/12/21 09:18:05;;;;;;;16.13;6.30;;;;;;;;;;5034878;28;20071;-66
2021/12/21 09:20:31;;;;;;;20.10;7.88;;;;;;;;;;5034751;28;20086;-61
2021/12/21 09:22:58;;;;;;;16.67;8.23;;;;;;;;;;5016892;28;20033;-62
2021/12/21 09:25:25;;;;;;;14.82;7.25;;;;;;;;;;5034887;28;20032;-62
2021/12/21 09:27:52;;;;;;;9.32;5.50;;;;;;;;;;5034511;28;20053;-65
2021/12/21 09:30:19;;;;;;;23.92;8.52;;;;;;;;;;5034393;28;20388;-63
2021/12/21 09:32:45;;;;;;;10.43;5.18;;;;;;;;;;5034428;28;20040;-63
2021/12/21 09:35:12;;;;;;;10.85;5.78;;;;;;;;;;5024352;28;20028;-62
2021/12/21 09:37:38;;;;;;;12.65;8.68;;;;;;;;;;5031294;28;20033;-65
2021/12/21 09:40:10;;;;;;;17.05;7.60;;;;;;;;;;5034458;28;20034;-65
2021/12/21 09:42:36;;;;;;;17.05;6.22;;;;;;;;;;5034505;28;20024;-65
2021/12/21 09:45:03;;;;;;;11.10;5.82;;;;;;;;;;5017324;28;20388;-63
2021/12/21 09:47:28;;;;;;;17.45;9.13;;;;;;;;;;5034072;28;20514;-65
2021/12/21 09:49:54;;;;;;;8.77;5.45;;;;;;;;;;5034354;28;20033;-66
2021/12/21 09:52:23;;;;;;;10.27;4.70;;;;;;;;;;5033930;28;20025;-65
2021/12/21 09:54:50;;;;;;;15.13;5.40;;;;;;;;;;5034223;28;20113;-59
2021/12/21 09:57:17;;;;;;;22.65;9.95;;;;;;;;;;5034167;28;20544;-65
2021/12/21 09:59:47;;;;;;;14.80;6.63;;;;;;;;;;5034235;28;20029;-66
2021/12/21 10:02:13;;;;;;;12.00;6.93;;;;;;;;;;5033915;28;20029;-61
2021/12/21 10:04:57;;;;;;;9.40;5.80;;;;;;;;;;5033812;28;20025;-64
2021/12/21 10:07:24;;;;;;;9.88;6.07;;;;;;;;;;5034043;28;20043;-60
2021/12/21 10:09:50;;;;;;;7.95;4.45;;;;;;;;;;5033924;28;20022;-60
2021/12/21 10:12:30;;;;;;;10.20;6.78;;;;;;;;;;5033767;28;20089;-67
2021/12/21 10:15:05;;;;;;;9.60;5.10;;;;;;;;;;5020624;28;20431;-63
2021/12/21 10:17:35;;;;;;;8.05;5.57;;;;;;;;;;5033557;28;20025;-61
2021/12/21 10:20:06;;;;;;;8.65;4.70;;;;;;;;;;5033289;28;20025;-60
2021/12/21 10:22:32;;;;;;;8.00;5.45;;;;;;;;;;5033965;28;20064;-60
2021/12/21 10:24:58;;;;;;;8.57;4.78;;;;;;;;;;5015791;28;20064;-61
2021/12/21 10:27:25;;;;;;;7.57;4.25;;;;;;;;;;5033631;28;20026;-60
2021/12/21 10:30:00;;;;;;;7.13;4.00;;;;;;;;;;5033177;28;20045;-65
2021/12/21 10:32:31;;;;;;;8.77;5.20;;;;;;;;;;5033701;28;20036;-63
2021/12/21 10:35:04;;;;;;;7.28;4.40;;;;;;;;;;5033342;28;20036;-62
2021/12/21 10:37:35;;;;;;;6.78;4.45;;;;;;;;;;5033534;28;20534;-60
2021/12/21 10:40:02;;;;;;;6.63;3.97;;;;;;;;;;5033564;28;20091;-61
2021/12/21 10:42:27;;;;;;;9.05;4.32;;;;;;;;;;5033326;28;20433;-60
2021/12/21 10:45:02;;;;;;;9.95;6.05;;;;;;;;;;5037050;28;20097;-59
2021/12/21 10:47:29;;;;;;;7.72;4.57;;;;;;;;;;5033509;28;20396;-62
2021/12/21 10:49:54;;;;;;;8.23;4.32;;;;;;;;;;5033181;28;20362;-66
2021/12/21 10:52:21;;;;;;;8.13;4.43;;;;;;;;;;5020097;28;20037;-63
2021/12/21 10:54:48;;;;;;;7.07;4.00;;;;;;;;;;5033147;28;20028;-66
2021/12/21 10:57:14;;;;;;;7.45;4.50;;;;;;;;;;5015479;28;20091;-66
2021/12/21 10:59:42;;;;;;;6.90;4.22;;;;;;;;;;5033108;28;20030;-64
2021/12/21 11:02:16;;;;;;;11.52;7.00;;;;;;;;;;5033040;28;20029;-62
2021/12/21 11:04:44;;;;;;;7.18;3.67;;;;;;;;;;5032781;28;20484;-65
2021/12/21 11:07:27;;;;;;;10.32;6.38;;;;;;;;;;5015612;28;20025;-65
2021/12/21 11:10:11;;;;;;;7.35;4.10;;;;;;;;;;5033185;28;20037;-66
2021/12/21 11:12:47;;;;;;;5.93;4.00;;;;;;;;;;5032951;28;20045;-67
2021/12/21 11:15:15;;;;;;;6.57;4.20;;;;;;;;;;5014820;28;20021;-66
2021/12/21 11:17:41;;;;;;;7.85;4.57;;;;;;;;;;5032580;28;20160;-64
2021/12/21 11:20:08;;;;;;;8.60;4.72;;;;;;;;;;5032396;28;20109;-67
2021/12/21 11:22:35;;;;;;;11.25;5.40;;;;;;;;;;5032781;28;20488;-66
2021/12/21 11:25:01;;;;;;;10.05;5.30;;;;;;;;;;5032961;28;20384;-63
2021/12/21 11:27:29;;;;;;;16.15;6.22;;;;;;;;;;5032531;28;20033;-60
2021/12/21 11:30:01;;;;;;;13.32;6.20;;;;;;;;;;5028693;28;20052;-60
2021/12/21 11:32:29;;;;;;;11.23;5.40;;;;;;;;;;5023764;28;20158;-64
2021/12/21 11:37:45;;;;;;;7.20;4.35;;;;;;;;;;4971336;28;20082;-66
2021/12/21 11:40:17;;;;;;;8.05;5.07;;;;;;;;;;4955488;28;20034;-66
2021/12/21 11:42:51;;;;;;;10.68;5.95;;;;;;;;;;4971594;28;20089;-61
2021/12/21 11:45:28;;;;;;;6.45;4.32;;;;;;;;;;4975774;28;20045;-67
2021/12/21 11:48:09;;;;;;;9.43;5.60;;;;;;;;;;4971297;28;20054;-66
2021/12/21 11:50:36;;;;;;;6.15;4.43;;;;;;;;;;4971639;28;20057;-65
2021/12/21 11:53:06;;;;;;;8.65;4.13;;;;;;;;;;4971553;28;20094;-65
2021/12/21 11:55:33;;;;;;;5.47;3.83;;;;;;;;;;4971846;28;20039;-61
2021/12/21 11:58:12;;;;;;;8.27;5.72;;;;;;;;;;4971595;28;20027;-61
2021/12/21 12:00:38;;;;;;;8.40;5.30;;;;;;;;;;4971614;28;20118;-60
2021/12/21 12:03:12;;;;;;;9.73;6.78;;;;;;;;;;4971071;28;20725;-66
2021/12/21 12:05:48;;;;;;;8.70;5.68;;;;;;;;;;4971391;28;20034;-61
2021/12/21 12:08:14;;;;;;;9.05;5.43;;;;;;;;;;4971409;28;20518;-60
2021/12/21 12:10:49;;;;;;;9.95;6.18;;;;;;;;;;4971369;28;20049;-60
2021/12/21 12:13:28;;;;;;;8.18;4.47;;;;;;;;;;4971552;28;20042;-60
2021/12/21 12:15:57;;;;;;;6.93;4.28;;;;;;;;;;5029635;28;20117;-60
2021/12/21 12:18:29;;;;;;;7.70;5.20;;;;;;;;;;5032057;28;20057;-66
2021/12/21 12:20:55;;;;;;;10.50;5.60;;;;;;;;;;5032203;28;20065;-64
2021/12/21 12:23:21;;;;;;;11.27;6.38;;;;;;;;;;5031980;28;20038;-60
2021/12/21 12:25:56;;;;;;;15.07;9.57;;;;;;;;;;5032085;28;20101;-61
2021/12/21 12:28:42;;;;;;;13.18;7.28;;;;;;;;;;5034648;28;20029;-60
2021/12/21 12:31:07;;;;;;;9.38;6.25;;;;;;;;;;5035265;28;20042;-60
2021/12/21 12:33:39;;;;;;;11.25;7.20;;;;;;;;;;5035740;28;20415;-64
2021/12/21 12:36:05;;;;;;;14.25;7.90;;;;;;;;;;5035997;28;20431;-64
2021/12/21 12:38:31;;;;;;;8.10;5.20;;;;;;;;;;5035435;28;20037;-61
2021/12/21 12:41:02;;;;;;;12.27;6.32;;;;;;;;;;5035589;28;20064;-61
2021/12/21 12:43:32;;;;;;;16.55;10.65;;;;;;;;;;5035730;28;20040;-67
2021/12/21 12:46:05;;;;;;;13.88;8.63;;;;;;;;;;5043106;28;20109;-66
2021/12/21 12:48:39;;;;;;;11.88;7.55;;;;;;;;;;5022395;28;20396;-66
2021/12/21 12:51:06;;;;;;;15.20;8.50;;;;;;;;;;5034992;28;20087;-67
2021/12/21 12:53:40;;;;;;;23.60;14.45;;;;;;;;;;5035755;28;20471;-65
2021/12/21 12:56:06;;;;;;;12.13;7.65;;;;;;;;;;5035351;28;20059;-65
2021/12/21 12:58:34;;;;;;;17.08;9.07;;;;;;;;;;5035349;28;20496;-64
2021/12/21 13:01:06;;;;;;;12.65;7.68;;;;;;;;;;5035007;28;20036;-65
2021/12/21 13:03:35;;;;;;;15.95;8.82;;;;;;;;;;5035499;28;20056;-63
2021/12/21 13:06:08;;;;;;;18.77;9.50;;;;;;;;;;5035187;28;20028;-61
2021/12/21 13:08:34;;;;;;;18.45;9.45;;;;;;;;;;5035340;28;20531;-62
2021/12/21 13:11:01;;;;;;;24.13;10.90;;;;;;;;;;5034859;28;20030;-61
2021/12/21 13:13:43;;;;;;;16.23;9.77;;;;;;;;;;5030900;28;20029;-63
2021/12/21 13:16:11;;;;;;;20.90;10.63;;;;;;;;;;5034980;28;20033;-61
2021/12/21 13:18:48;;;;;;;18.65;9.85;;;;;;;;;;5017467;28;20060;-61
2021/12/21 13:21:20;;;;;;;22.90;10.75;;;;;;;;;;5034878;28;20029;-62
2021/12/21 13:23:50;;;;;;;17.27;9.07;;;;;;;;;;5034916;28;20029;-64
2021/12/21 13:26:16;;;;;;;20.63;10.43;;;;;;;;;;5025544;28;20405;-63
2021/12/21 13:28:47;;;;;;;19.95;9.77;;;;;;;;;;5026456;28;20424;-66
2021/12/21 13:31:20;;;;;;;23.67;10.15;;;;;;;;;;5034844;28;20041;-60
2021/12/21 13:33:56;;;;;;;20.60;10.55;;;;;;;;;;5034806;28;20041;-60
2021/12/21 13:36:31;;;;;;;23.08;10.48;;;;;;;;;;5034884;28;20116;-66
2021/12/21 13:38:58;;;;;;;41.40;16.67;;;;;;;;;;5033406;28;20068;-64
2021/12/21 13:41:23;;;;;;;29.98;13.52;;;;;;;;;;5034583;28;20038;-61
2021/12/21 13:43:58;;;;;;;23.17;11.27;;;;;;;;;;5036532;28;20475;-62
2021/12/21 13:46:25;;;;;;;29.58;16.98;;;;;;;;;;5038794;28;20060;-63
2021/12/21 13:48:56;;;;;;;24.08;14.35;;;;;;;;;;5034203;28;20049;-65
2021/12/21 13:51:22;;;;;;;27.70;13.10;;;;;;;;;;5033859;28;20043;-64
2021/12/21 13:53:54;;;;;;;22.45;12.05;;;;;;;;;;5034332;28;20089;-66
2021/12/21 13:56:23;;;;;;;15.50;7.95;;;;;;;;;;5034284;28;20500;-67
2021/12/21 13:58:54;;;;;;;41.60;17.20;;;;;;;;;;5015940;28;20060;-66
2021/12/21 14:01:29;;;;;;;26.15;14.38;;;;;;;;;;5034138;28;20104;-63
2021/12/21 14:04:00;;;;;;;25.77;13.40;;;;;;;;;;5034213;28;20030;-65
2021/12/21 14:06:27;;;;;;;24.63;11.93;;;;;;;;;;5034189;28;20029;-63
2021/12/21 14:08:55;;;;;;;24.88;12.40;;;;;;;;;;5033876;28;20423;-67
2021/12/21 14:11:28;;;;;;;21.92;10.98;;;;;;;;;;5033840;28;20040;-66
2021/12/21 14:13:54;;;;;;;23.98;11.73;;;;;;;;;;5033768;28;20445;-64
2021/12/21 14:16:26;;;;;;;21.02;11.77;;;;;;;;;;5034083;28;20061;-66
2021/12/21 14:19:03;;;;;;;31.30;15.40;;;;;;;;;;5016569;28;20060;-64
2021/12/21 14:21:36;;;;;;;35.10;19.88;;;;;;;;;;5033755;28;20029;-62
2021/12/21 14:24:10;;;;;;;22.08;12.52;;;;;;;;;;5033723;28;20017;-62
2021/12/21 14:26:48;;;;;;;48.22;10.27;;;;;;;;;;5033508;28;20022;-63
2021/12/21 14:29:15;;;;;;;34.08;10.00;;;;;;;;;;5033677;28;20112;-64
2021/12/21 14:31:52;;;;;;;35.95;14.93;;;;;;;;;;5033508;28;20031;-62
2021/12/21 14:34:26;;;;;;;28.40;9.43;;;;;;;;;;5033770;28;20124;-61
2021/12/21 14:36:53;;;;;;;35.08;11.52;;;;;;;;;;5033501;28;20028;-68
2021/12/21 14:39:20;;;;;;;57.95;13.52;;;;;;;;;;5033216;28;20397;-64
2021/12/21 14:41:51;;;;;;;77.93;26.65;;;;;;;;;;5032864;28;20042;-63
2021/12/21 14:44:26;;;;;;;53.42;14.23;;;;;;;;;;5039302;28;20045;-60
2021/12/21 14:47:09;;;;;;;51.08;13.23;;;;;;;;;;5018112;28;20025;-64
2021/12/21 14:49:42;;;;;;;28.58;10.13;;;;;;;;;;5033202;28;20056;-64
2021/12/21 14:52:17;;;;;;;25.75;6.85;;;;;;;;;;5032190;28;20040;-62
2021/12/21 14:54:51;;;;;;;26.13;10.68;;;;;;;;;;5015342;28;20029;-63
2021/12/21 14:57:48;;;;;;;42.00;15.52;;;;;;;;;;5033018;28;20021;-62
2021/12/21 15:00:18;;;;;;;46.67;17.92;;;;;;;;;;5019914;28;20032;-64
2021/12/21 15:05:15;;;;;;;31.38;10.45;;;;;;;;;;5019975;28;20033;-63
2021/12/21 15:07:40;;;;;;;28.80;11.60;;;;;;;;;;5032684;28;20025;-64
2021/12/21 15:10:08;;;;;;;43.28;12.18;;;;;;;;;;5032353;28;20056;-62
2021/12/21 15:12:34;;;;;;;26.75;11.77;;;;;;;;;;5032756;28;20083;-61
2021/12/21 15:15:02;;;;;;;26.67;11.60;;;;;;;;;;5032679;28;20026;-62
2021/12/21 15:17:28;;;;;;;20.52;8.07;;;;;;;;;;5032612;28;20424;-66
2021/12/21 15:19:53;;;;;;;30.13;12.18;;;;;;;;;;5032530;28;20061;-66
2021/12/21 15:22:19;;;;;;;34.38;12.82;;;;;;;;;;5019472;28;20033;-64
2021/12/21 15:24:44;;;;;;;26.02;9.57;;;;;;;;;;5032289;28;20028;-62
2021/12/21 15:27:10;;;;;;;24.58;12.95;;;;;;;;;;5032447;28;20175;-61
2021/12/21 15:29:37;;;;;;;22.45;12.23;;;;;;;;;;5032215;28;20076;-65
2021/12/21 15:32:03;;;;;;;19.33;10.85;;;;;;;;;;5032000;28;20496;-65
2021/12/21 15:34:29;;;;;;;66.13;33.88;;;;;;;;;;5019431;28;20025;-60
2021/12/21 15:36:54;;;;;;;61.53;29.10;;;;;;;;;;5032501;28;20314;-65
2021/12/21 15:39:22;;;;;;;37.55;17.65;;;;;;;;;;5031893;28;20484;-62
2021/12/21 15:41:53;;;;;;;17.70;8.13;;;;;;;;;;5032543;28;20060;-63